sensor_id;sensor_type;location;lat;lon;timestamp;pressure;altitude;pressure_sealevel;temperature;humidity
82872;BME280;72646;43.596;1.428;2023-09-12T00:01:03;99488.56;;;24.62;55.37
82872;BME280;72646;43.596;1.428;2023-09-12T00:03:30;99478.00;;;24.59;55.78
82872;BME280;72646;43.596;1.428;2023-09-12T00:05:57;99476.41;;;24.53;55.90
82872;BME280;72646;43.596;1.428;2023-09-12T00:08:23;99468.16;;;24.43;56.22
82872;BME280;72646;43.596;1.428;2023-09-12T00:11:18;99472.41;;;24.59;56.09
82872;BME280;72646;43.596;1.428;2023-09-12T00:13:44;99466.78;;;24.64;55.87
82872;BME280;72646;43.596;1.428;2023-09-12T00:16:10;99469.91;;;24.81;55.36
82872;BME280;72646;43.596;1.428;2023-09-12T00:18:37;99472.91;;;24.66;56.10
82872;BME280;72646;43.596;1.428;2023-09-12T00:21:06;99490.13;;;24.73;56.21
82872;BME280;72646;43.596;1.428;2023-09-12T00:23:31;99484.84;;;24.48;57.26
82872;BME280;72646;43.596;1.428;2023-09-12T00:25:57;99495.94;;;24.53;57.08
82872;BME280;72646;43.596;1.428;2023-09-12T00:28:23;99507.47;;;24.47;57.35
82872;BME280;72646;43.596;1.428;2023-09-12T00:30:49;99502.94;;;24.27;58.29
82872;BME280;72646;43.596;1.428;2023-09-12T00:33:14;99507.13;;;24.30;58.27
82872;BME280;72646;43.596;1.428;2023-09-12T00:35:40;99511.44;;;24.17;58.80
82872;BME280;72646;43.596;1.428;2023-09-12T00:38:06;99508.00;;;24.25;59.06
82872;BME280;72646;43.596;1.428;2023-09-12T00:40:32;99510.09;;;24.38;58.52
82872;BME280;72646;43.596;1.428;2023-09-12T00:42:58;99514.47;;;24.44;58.58
82872;BME280;72646;43.596;1.428;2023-09-12T00:45:24;99518.63;;;24.23;59.32
82872;BME280;72646;43.596;1.428;2023-09-12T00:47:51;99510.31;;;24.18;59.53
82872;BME280;72646;43.596;1.428;2023-09-12T00:50:17;99501.75;;;24.33;59.03
82872;BME280;72646;43.596;1.428;2023-09-12T00:52:45;99498.47;;;24.50;58.24
82872;BME280;72646;43.596;1.428;2023-09-12T00:55:11;99510.00;;;24.43;58.54
82872;BME280;72646;43.596;1.428;2023-09-12T00:57:36;99504.91;;;24.50;58.00
82872;BME280;72646;43.596;1.428;2023-09-12T01:00:04;99499.50;;;24.59;58.11
82872;BME280;72646;43.596;1.428;2023-09-12T01:02:44;99487.53;;;24.58;58.05
82872;BME280;72646;43.596;1.428;2023-09-12T01:05:12;99479.44;;;24.57;58.10
82872;BME280;72646;43.596;1.428;2023-09-12T01:07:41;99464.84;;;24.65;57.87
82872;BME280;72646;43.596;1.428;2023-09-12T01:10:08;99466.66;;;24.74;57.37
82872;BME280;72646;43.596;1.428;2023-09-12T01:12:34;99468.84;;;24.77;57.46
82872;BME280;72646;43.596;1.428;2023-09-12T01:14:59;99469.00;;;24.86;57.04
82872;BME280;72646;43.596;1.428;2023-09-12T01:17:25;99469.59;;;24.83;57.21
82872;BME280;72646;43.596;1.428;2023-09-12T01:19:51;99485.63;;;24.96;56.77
82872;BME280;72646;43.596;1.428;2023-09-12T01:28:15;99465.16;;;25.00;56.63
82872;BME280;72646;43.596;1.428;2023-09-12T01:30:45;99479.81;;;24.92;56.95
82872;BME280;72646;43.596;1.428;2023-09-12T01:33:11;99479.56;;;24.70;57.71
82872;BME280;72646;43.596;1.428;2023-09-12T01:35:37;99494.06;;;24.72;58.00
82872;BME280;72646;43.596;1.428;2023-09-12T01:38:03;99479.56;;;24.70;57.80
82872;BME280;72646;43.596;1.428;2023-09-12T01:40:38;99477.47;;;24.57;58.24
82872;BME280;72646;43.596;1.428;2023-09-12T01:43:06;99478.13;;;24.73;57.80
82872;BME280;72646;43.596;1.428;2023-09-12T01:45:32;99482.88;;;24.72;58.15
82872;BME280;72646;43.596;1.428;2023-09-12T01:47:58;99511.28;;;24.79;57.88
82872;BME280;72646;43.596;1.428;2023-09-12T01:50:27;99528.59;;;24.29;59.77
82872;BME280;72646;43.596;1.428;2023-09-12T01:52:53;99525.25;;;24.03;60.91
82872;BME280;72646;43.596;1.428;2023-09-12T01:55:20;99535.00;;;24.01;61.05
82872;BME280;72646;43.596;1.428;2023-09-12T01:57:46;99536.50;;;23.93;60.27
82872;BME280;72646;43.596;1.428;2023-09-12T02:00:13;99556.19;;;23.68;60.33
82872;BME280;72646;43.596;1.428;2023-09-12T02:02:38;99566.53;;;23.68;60.38
82872;BME280;72646;43.596;1.428;2023-09-12T02:05:18;99573.78;;;23.64;60.47
82872;BME280;72646;43.596;1.428;2023-09-12T02:07:45;99567.19;;;23.55;61.33
82872;BME280;72646;43.596;1.428;2023-09-12T02:10:11;99556.75;;;23.70;61.03
82872;BME280;72646;43.596;1.428;2023-09-12T02:12:37;99545.50;;;23.80;60.54
82872;BME280;72646;43.596;1.428;2023-09-12T02:15:03;99548.47;;;23.94;60.12
82872;BME280;72646;43.596;1.428;2023-09-12T02:17:29;99534.16;;;23.72;61.78
82872;BME280;72646;43.596;1.428;2023-09-12T02:19:54;99536.28;;;23.85;61.53
82872;BME280;72646;43.596;1.428;2023-09-12T02:22:19;99530.28;;;23.68;62.21
82872;BME280;72646;43.596;1.428;2023-09-12T02:24:45;99519.47;;;23.61;62.28
82872;BME280;72646;43.596;1.428;2023-09-12T02:27:10;99517.94;;;23.79;61.79
82872;BME280;72646;43.596;1.428;2023-09-12T02:29:39;99507.81;;;23.88;61.70
82872;BME280;72646;43.596;1.428;2023-09-12T02:32:05;99510.53;;;23.98;60.99
82872;BME280;72646;43.596;1.428;2023-09-12T02:34:31;99506.03;;;24.02;60.78
82872;BME280;72646;43.596;1.428;2023-09-12T02:36:56;99485.44;;;23.98;60.86
82872;BME280;72646;43.596;1.428;2023-09-12T02:39:22;99498.34;;;24.12;60.46
82872;BME280;72646;43.596;1.428;2023-09-12T02:41:47;99498.53;;;24.21;60.41
82872;BME280;72646;43.596;1.428;2023-09-12T02:44:12;99494.16;;;24.15;60.45
82872;BME280;72646;43.596;1.428;2023-09-12T02:46:38;99496.53;;;24.03;60.97
82872;BME280;72646;43.596;1.428;2023-09-12T02:49:03;99489.38;;;23.92;61.75
82872;BME280;72646;43.596;1.428;2023-09-12T02:51:29;99490.81;;;23.56;62.86
82872;BME280;72646;43.596;1.428;2023-09-12T02:53:54;99479.19;;;23.05;64.59
82872;BME280;72646;43.596;1.428;2023-09-12T02:56:20;99481.00;;;22.81;65.35
82872;BME280;72646;43.596;1.428;2023-09-12T02:58:46;99485.31;;;22.64;66.15
82872;BME280;72646;43.596;1.428;2023-09-12T03:01:19;99478.00;;;22.73;65.88
82872;BME280;72646;43.596;1.428;2023-09-12T03:03:51;99470.72;;;22.77;65.50
82872;BME280;72646;43.596;1.428;2023-09-12T03:06:16;99471.34;;;22.69;65.90
82872;BME280;72646;43.596;1.428;2023-09-12T03:08:44;99469.25;;;22.41;67.07
82872;BME280;72646;43.596;1.428;2023-09-12T03:11:09;99461.22;;;22.24;67.69
82872;BME280;72646;43.596;1.428;2023-09-12T03:13:37;99455.47;;;21.95;68.23
82872;BME280;72646;43.596;1.428;2023-09-12T03:16:03;99453.59;;;21.76;69.00
82872;BME280;72646;43.596;1.428;2023-09-12T03:18:28;99438.88;;;21.80;68.95
82872;BME280;72646;43.596;1.428;2023-09-12T03:20:54;99434.41;;;21.74;69.63
82872;BME280;72646;43.596;1.428;2023-09-12T03:23:20;99441.38;;;21.52;70.67
82872;BME280;72646;43.596;1.428;2023-09-12T03:25:45;99439.97;;;21.64;70.88
82872;BME280;72646;43.596;1.428;2023-09-12T03:28:11;99429.38;;;21.71;70.09
82872;BME280;72646;43.596;1.428;2023-09-12T03:30:37;99425.81;;;21.56;70.55
82872;BME280;72646;43.596;1.428;2023-09-12T03:33:03;99427.47;;;21.57;70.94
82872;BME280;72646;43.596;1.428;2023-09-12T03:35:29;99427.78;;;21.50;70.88
82872;BME280;72646;43.596;1.428;2023-09-12T03:37:54;99428.31;;;21.42;71.33
82872;BME280;72646;43.596;1.428;2023-09-12T03:40:20;99429.19;;;21.28;72.33
82872;BME280;72646;43.596;1.428;2023-09-12T03:42:46;99429.47;;;21.26;72.96
82872;BME280;72646;43.596;1.428;2023-09-12T03:45:11;99441.94;;;21.34;72.76
82872;BME280;72646;43.596;1.428;2023-09-12T03:47:37;99426.69;;;21.36;72.57
82872;BME280;72646;43.596;1.428;2023-09-12T03:50:02;99438.34;;;21.33;73.12
82872;BME280;72646;43.596;1.428;2023-09-12T03:52:29;99430.00;;;21.28;73.30
82872;BME280;72646;43.596;1.428;2023-09-12T03:54:54;99423.63;;;21.23;73.63
82872;BME280;72646;43.596;1.428;2023-09-12T03:57:20;99429.44;;;21.31;73.27
82872;BME280;72646;43.596;1.428;2023-09-12T03:59:45;99429.47;;;21.16;74.04
82872;BME280;72646;43.596;1.428;2023-09-12T04:02:12;99428.31;;;21.22;73.76
82872;BME280;72646;43.596;1.428;2023-09-12T04:04:37;99431.69;;;21.29;73.52
82872;BME280;72646;43.596;1.428;2023-09-12T04:07:03;99432.22;;;21.36;73.14
82872;BME280;72646;43.596;1.428;2023-09-12T04:09:29;99444.44;;;21.50;72.52
82872;BME280;72646;43.596;1.428;2023-09-12T04:11:54;99431.94;;;21.58;72.50
82872;BME280;72646;43.596;1.428;2023-09-12T04:14:21;99452.75;;;21.75;71.36
82872;BME280;72646;43.596;1.428;2023-09-12T04:16:46;99458.78;;;22.02;70.47
82872;BME280;72646;43.596;1.428;2023-09-12T04:19:13;99457.34;;;22.25;70.07
82872;BME280;72646;43.596;1.428;2023-09-12T04:21:39;99462.84;;;22.40;69.13
82872;BME280;72646;43.596;1.428;2023-09-12T04:24:05;99457.53;;;22.49;68.73
82872;BME280;72646;43.596;1.428;2023-09-12T04:26:30;99461.66;;;22.61;68.52
82872;BME280;72646;43.596;1.428;2023-09-12T04:28:56;99464.41;;;22.66;68.11
82872;BME280;72646;43.596;1.428;2023-09-12T04:31:21;99469.72;;;22.63;68.00
82872;BME280;72646;43.596;1.428;2023-09-12T04:33:47;99471.41;;;22.59;67.99
82872;BME280;72646;43.596;1.428;2023-09-12T04:36:12;99485.31;;;22.64;67.92
82872;BME280;72646;43.596;1.428;2023-09-12T04:38:38;99488.91;;;22.64;68.28
82872;BME280;72646;43.596;1.428;2023-09-12T04:41:03;99478.63;;;22.60;68.15
82872;BME280;72646;43.596;1.428;2023-09-12T04:43:31;99478.63;;;22.65;67.92
82872;BME280;72646;43.596;1.428;2023-09-12T04:45:57;99482.75;;;22.67;67.42
82872;BME280;72646;43.596;1.428;2023-09-12T04:48:22;99478.63;;;22.65;67.50
82872;BME280;72646;43.596;1.428;2023-09-12T04:50:48;99489.94;;;22.78;66.82
82872;BME280;72646;43.596;1.428;2023-09-12T04:53:14;99491.34;;;22.76;66.78
82872;BME280;72646;43.596;1.428;2023-09-12T04:55:39;99486.63;;;22.76;66.78
82872;BME280;72646;43.596;1.428;2023-09-12T04:58:05;99494.94;;;22.81;66.72
82872;BME280;72646;43.596;1.428;2023-09-12T05:00:32;99502.47;;;22.81;66.68
82872;BME280;72646;43.596;1.428;2023-09-12T05:02:57;99500.72;;;22.90;66.47
82872;BME280;72646;43.596;1.428;2023-09-12T05:05:23;99494.06;;;22.91;65.89
82872;BME280;72646;43.596;1.428;2023-09-12T05:07:48;99502.84;;;23.08;65.40
82872;BME280;72646;43.596;1.428;2023-09-12T05:10:14;99494.44;;;23.18;65.00
82872;BME280;72646;43.596;1.428;2023-09-12T05:12:39;99498.84;;;23.24;65.24
82872;BME280;72646;43.596;1.428;2023-09-12T05:15:05;99494.22;;;23.09;65.87
82872;BME280;72646;43.596;1.428;2023-09-12T05:17:31;99492.34;;;22.95;66.61
82872;BME280;72646;43.596;1.428;2023-09-12T05:19:56;99489.75;;;23.08;66.04
82872;BME280;72646;43.596;1.428;2023-09-12T05:22:22;99490.81;;;23.22;65.48
82872;BME280;72646;43.596;1.428;2023-09-12T05:24:47;99487.13;;;23.27;65.34
82872;BME280;72646;43.596;1.428;2023-09-12T05:27:13;99488.16;;;23.41;64.86
82872;BME280;72646;43.596;1.428;2023-09-12T05:32:04;99494.53;;;23.46;64.28
82872;BME280;72646;43.596;1.428;2023-09-12T05:34:30;99498.69;;;23.49;64.45
82872;BME280;72646;43.596;1.428;2023-09-12T05:36:56;99496.19;;;23.47;63.98
82872;BME280;72646;43.596;1.428;2023-09-12T05:39:22;99486.47;;;23.45;64.35
82872;BME280;72646;43.596;1.428;2023-09-12T05:41:49;99491.41;;;23.53;64.14
82872;BME280;72646;43.596;1.428;2023-09-12T05:44:14;99498.03;;;23.57;63.89
82872;BME280;72646;43.596;1.428;2023-09-12T05:46:45;99504.47;;;23.52;64.05
82872;BME280;72646;43.596;1.428;2023-09-12T05:49:11;99505.03;;;23.54;64.22
82872;BME280;72646;43.596;1.428;2023-09-12T05:51:36;99510.88;;;23.58;63.95
82872;BME280;72646;43.596;1.428;2023-09-12T05:54:02;99508.66;;;23.55;64.17
82872;BME280;72646;43.596;1.428;2023-09-12T05:56:28;99528.97;;;23.60;63.85
82872;BME280;72646;43.596;1.428;2023-09-12T05:58:54;99526.41;;;23.64;63.59
82872;BME280;72646;43.596;1.428;2023-09-12T06:01:19;99518.31;;;23.67;63.56
82872;BME280;72646;43.596;1.428;2023-09-12T06:03:45;99504.41;;;23.62;63.56
82872;BME280;72646;43.596;1.428;2023-09-12T06:06:11;99502.66;;;23.71;63.53
82872;BME280;72646;43.596;1.428;2023-09-12T06:08:37;99512.84;;;23.86;63.04
82872;BME280;72646;43.596;1.428;2023-09-12T06:11:02;99507.53;;;23.89;62.86
82872;BME280;72646;43.596;1.428;2023-09-12T06:13:28;99498.28;;;23.94;62.76
82872;BME280;72646;43.596;1.428;2023-09-12T06:15:53;99498.28;;;23.94;63.26
82872;BME280;72646;43.596;1.428;2023-09-12T06:18:18;99497.19;;;23.90;63.26
82872;BME280;72646;43.596;1.428;2023-09-12T06:20:45;99489.50;;;23.77;63.46
82872;BME280;72646;43.596;1.428;2023-09-12T06:23:10;99504.44;;;23.91;62.98
82872;BME280;72646;43.596;1.428;2023-09-12T06:25:35;99513.03;;;23.99;63.02
82872;BME280;72646;43.596;1.428;2023-09-12T06:28:01;99501.50;;;24.06;62.90
82872;BME280;72646;43.596;1.428;2023-09-12T06:30:26;99499.69;;;24.20;62.42
82872;BME280;72646;43.596;1.428;2023-09-12T06:32:52;99511.38;;;24.22;62.44
82872;BME280;72646;43.596;1.428;2023-09-12T06:35:17;99518.63;;;24.23;62.47
82872;BME280;72646;43.596;1.428;2023-09-12T06:37:43;99521.47;;;24.18;62.25
82872;BME280;72646;43.596;1.428;2023-09-12T06:40:09;99522.06;;;24.15;63.60
82872;BME280;72646;43.596;1.428;2023-09-12T06:42:34;99524.50;;;24.21;62.90
82872;BME280;72646;43.596;1.428;2023-09-12T06:45:00;99530.25;;;24.30;62.28
82872;BME280;72646;43.596;1.428;2023-09-12T06:47:25;99517.78;;;24.22;62.23
82872;BME280;72646;43.596;1.428;2023-09-12T06:49:51;99534.41;;;24.33;62.52
82872;BME280;72646;43.596;1.428;2023-09-12T06:52:16;99537.38;;;24.41;62.25
82872;BME280;72646;43.596;1.428;2023-09-12T06:54:41;99531.16;;;24.49;62.09
82872;BME280;72646;43.596;1.428;2023-09-12T06:57:07;99532.19;;;24.58;61.90
82872;BME280;72646;43.596;1.428;2023-09-12T06:59:32;99529.28;;;24.68;61.73
82872;BME280;72646;43.596;1.428;2023-09-12T07:01:58;99535.34;;;24.75;61.71
82872;BME280;72646;43.596;1.428;2023-09-12T07:04:24;99527.44;;;24.82;61.56
82872;BME280;72646;43.596;1.428;2023-09-12T07:06:50;99524.56;;;24.87;60.90
82872;BME280;72646;43.596;1.428;2023-09-12T07:09:16;99523.66;;;24.92;60.54
82872;BME280;72646;43.596;1.428;2023-09-12T07:11:42;99532.03;;;24.92;60.69
82872;BME280;72646;43.596;1.428;2023-09-12T07:14:08;99531.50;;;24.90;60.96
82872;BME280;72646;43.596;1.428;2023-09-12T07:18:54;99538.00;;;24.85;61.03
82872;BME280;72646;43.596;1.428;2023-09-12T07:21:20;99548.88;;;24.87;60.99
82872;BME280;72646;43.596;1.428;2023-09-12T07:23:47;99549.38;;;24.89;60.75
82872;BME280;72646;43.596;1.428;2023-09-12T07:26:14;99553.53;;;24.91;60.81
82872;BME280;72646;43.596;1.428;2023-09-12T07:28:40;99559.97;;;24.92;61.04
82872;BME280;72646;43.596;1.428;2023-09-12T07:31:05;99570.00;;;24.93;61.39
82872;BME280;72646;43.596;1.428;2023-09-12T07:33:31;99575.59;;;24.93;61.54
82872;BME280;72646;43.596;1.428;2023-09-12T07:35:57;99565.84;;;24.90;61.46
82872;BME280;72646;43.596;1.428;2023-09-12T07:38:22;99575.84;;;24.96;61.50
82872;BME280;72646;43.596;1.428;2023-09-12T07:40:47;99571.69;;;24.94;61.35
82872;BME280;72646;43.596;1.428;2023-09-12T07:43:13;99591.44;;;24.97;61.34
82872;BME280;72646;43.596;1.428;2023-09-12T07:45:39;99578.16;;;24.89;61.04
82872;BME280;72646;43.596;1.428;2023-09-12T07:48:06;99585.34;;;24.95;61.25
82872;BME280;72646;43.596;1.428;2023-09-12T07:50:53;99582.84;;;24.94;61.03
82872;BME280;72646;43.596;1.428;2023-09-12T07:53:19;99597.03;;;24.97;60.88
82872;BME280;72646;43.596;1.428;2023-09-12T07:55:44;99602.91;;;24.96;60.85
82872;BME280;72646;43.596;1.428;2023-09-12T07:58:18;99607.41;;;24.97;61.07
82872;BME280;72646;43.596;1.428;2023-09-12T08:00:43;99624.97;;;24.97;61.21
82872;BME280;72646;43.596;1.428;2023-09-12T08:03:09;99631.69;;;24.96;61.05
82872;BME280;72646;43.596;1.428;2023-09-12T08:05:35;99641.44;;;24.99;60.88
82872;BME280;72646;43.596;1.428;2023-09-12T08:08:00;99625.03;;;24.92;60.43
82872;BME280;72646;43.596;1.428;2023-09-12T08:10:26;99640.91;;;24.97;60.66
82872;BME280;72646;43.596;1.428;2023-09-12T08:12:51;99642.56;;;24.98;60.73
82872;BME280;72646;43.596;1.428;2023-09-12T08:15:17;99641.44;;;24.99;60.70
82872;BME280;72646;43.596;1.428;2023-09-12T08:17:43;99637.88;;;24.93;60.77
82872;BME280;72646;43.596;1.428;2023-09-12T08:20:09;99630.63;;;24.92;60.42
82872;BME280;72646;43.596;1.428;2023-09-12T08:22:36;99636.22;;;24.92;60.41
82872;BME280;72646;43.596;1.428;2023-09-12T08:25:02;99634.22;;;24.93;60.48
82872;BME280;72646;43.596;1.428;2023-09-12T08:27:27;99643.44;;;24.93;60.63
82872;BME280;72646;43.596;1.428;2023-09-12T08:29:53;99644.03;;;24.90;60.40
82872;BME280;72646;43.596;1.428;2023-09-12T08:32:18;99648.19;;;24.93;60.38
82872;BME280;72646;43.596;1.428;2023-09-12T08:34:44;99646.28;;;24.88;60.57
82872;BME280;72646;43.596;1.428;2023-09-12T08:37:10;99649.34;;;24.92;60.20
82872;BME280;72646;43.596;1.428;2023-09-12T08:39:43;99641.84;;;24.87;60.25
82872;BME280;72646;43.596;1.428;2023-09-12T08:42:13;99646.00;;;24.90;60.21
82872;BME280;72646;43.596;1.428;2023-09-12T08:44:39;99647.13;;;24.89;60.23
82872;BME280;72646;43.596;1.428;2023-09-12T08:47:07;99653.00;;;24.87;59.96
82872;BME280;72646;43.596;1.428;2023-09-12T08:49:35;99664.19;;;24.87;59.97
82872;BME280;72646;43.596;1.428;2023-09-12T08:52:01;99661.66;;;24.91;60.29
82872;BME280;72646;43.596;1.428;2023-09-12T08:54:27;99650.78;;;24.89;59.80
82872;BME280;72646;43.596;1.428;2023-09-12T08:56:53;99643.81;;;24.87;59.87
82872;BME280;72646;43.596;1.428;2023-09-12T08:59:20;99648.56;;;24.86;59.99
82872;BME280;72646;43.596;1.428;2023-09-12T09:01:46;99658.31;;;24.89;59.77
82872;BME280;72646;43.596;1.428;2023-09-12T09:04:12;99661.88;;;24.94;59.91
82872;BME280;72646;43.596;1.428;2023-09-12T09:06:39;99652.19;;;24.87;59.68
82872;BME280;72646;43.596;1.428;2023-09-12T09:09:07;99650.22;;;24.87;59.33
82872;BME280;72646;43.596;1.428;2023-09-12T09:11:33;99649.72;;;24.85;59.69
82872;BME280;72646;43.596;1.428;2023-09-12T09:14:01;99663.59;;;24.90;59.57
82872;BME280;72646;43.596;1.428;2023-09-12T09:16:28;99656.56;;;24.93;59.00
82872;BME280;72646;43.596;1.428;2023-09-12T09:18:59;99664.66;;;24.94;58.82
82872;BME280;72646;43.596;1.428;2023-09-12T09:21:30;99662.72;;;24.95;58.53
82872;BME280;72646;43.596;1.428;2023-09-12T09:23:58;99658.25;;;24.94;58.77
82872;BME280;72646;43.596;1.428;2023-09-12T09:26:24;99662.47;;;24.91;58.66
82872;BME280;72646;43.596;1.428;2023-09-12T09:29:09;99669.13;;;24.95;58.67
82872;BME280;72646;43.596;1.428;2023-09-12T09:31:40;99665.50;;;24.95;58.40
82872;BME280;72646;43.596;1.428;2023-09-12T09:34:16;99666.84;;;24.97;58.38
82872;BME280;72646;43.596;1.428;2023-09-12T09:36:43;99659.91;;;24.95;58.17
82872;BME280;72646;43.596;1.428;2023-09-12T09:39:09;99661.81;;;24.99;58.08
82872;BME280;72646;43.596;1.428;2023-09-12T09:41:36;99664.06;;;24.97;58.37
82872;BME280;72646;43.596;1.428;2023-09-12T09:44:07;99658.19;;;24.99;58.13
82872;BME280;72646;43.596;1.428;2023-09-12T09:46:33;99660.13;;;24.98;57.98
82872;BME280;72646;43.596;1.428;2023-09-12T09:48:58;99661.53;;;25.01;58.07
82872;BME280;72646;43.596;1.428;2023-09-12T09:51:25;99665.13;;;25.01;57.83
82872;BME280;72646;43.596;1.428;2023-09-12T09:53:51;99657.03;;;25.00;57.91
82872;BME280;72646;43.596;1.428;2023-09-12T09:56:17;99652.59;;;24.99;57.69
82872;BME280;72646;43.596;1.428;2023-09-12T09:58:53;99662.94;;;24.98;57.83
82872;BME280;72646;43.596;1.428;2023-09-12T10:01:26;99648.50;;;24.91;57.50
82872;BME280;72646;43.596;1.428;2023-09-12T10:03:52;99653.50;;;24.94;57.77
82872;BME280;72646;43.596;1.428;2023-09-12T10:06:20;99658.78;;;24.96;57.49
82872;BME280;72646;43.596;1.428;2023-09-12T10:08:50;99664.91;;;24.98;57.58
82872;BME280;72646;43.596;1.428;2023-09-12T10:11:17;99664.63;;;24.99;57.66
82872;BME280;72646;43.596;1.428;2023-09-12T10:13:57;99681.06;;;25.01;57.77
82872;BME280;72646;43.596;1.428;2023-09-12T10:16:29;99677.44;;;25.00;57.43
82872;BME280;72646;43.596;1.428;2023-09-12T10:21:45;99681.88;;;25.01;57.48
82872;BME280;72646;43.596;1.428;2023-09-12T10:24:12;99683.88;;;25.01;57.42
82872;BME280;72646;43.596;1.428;2023-09-12T10:26:41;99681.31;;;25.04;57.35
82872;BME280;72646;43.596;1.428;2023-09-12T10:29:10;99693.88;;;25.07;57.44
82872;BME280;72646;43.596;1.428;2023-09-12T10:31:37;99686.88;;;25.04;57.40
82872;BME280;72646;43.596;1.428;2023-09-12T10:34:03;99684.94;;;25.05;57.29
82872;BME280;72646;43.596;1.428;2023-09-12T10:36:32;99688.56;;;25.05;57.45
82872;BME280;72646;43.596;1.428;2023-09-12T10:38:59;99691.88;;;25.07;57.23
82872;BME280;72646;43.596;1.428;2023-09-12T10:41:25;99693.53;;;25.08;57.17
82872;BME280;72646;43.596;1.428;2023-09-12T10:43:52;99685.22;;;25.03;57.34
82872;BME280;72646;43.596;1.428;2023-09-12T10:46:18;99686.59;;;25.06;57.16
82872;BME280;72646;43.596;1.428;2023-09-12T10:48:43;99701.63;;;25.10;57.22
82872;BME280;72646;43.596;1.428;2023-09-12T10:51:10;99696.66;;;25.07;56.86
82872;BME280;72646;43.596;1.428;2023-09-12T10:53:37;99687.47;;;25.01;57.21
82872;BME280;72646;43.596;1.428;2023-09-12T11:01:44;99681.84;;;25.06;57.22
82872;BME280;72646;43.596;1.428;2023-09-12T11:06:46;99691.06;;;25.07;57.11
82872;BME280;72646;43.596;1.428;2023-09-12T11:09:31;99696.66;;;25.07;56.83
82872;BME280;72646;43.596;1.428;2023-09-12T11:12:03;99697.19;;;25.09;57.04
82872;BME280;72646;43.596;1.428;2023-09-12T11:14:30;99694.63;;;25.12;57.06
82872;BME280;72646;43.596;1.428;2023-09-12T11:19:50;99692.44;;;25.09;56.75
82872;BME280;72646;43.596;1.428;2023-09-12T11:22:30;99694.63;;;25.12;56.79
82872;BME280;72646;43.596;1.428;2023-09-12T11:25:03;99699.94;;;25.14;56.96
82872;BME280;72646;43.596;1.428;2023-09-12T11:27:45;99702.44;;;25.15;56.61
82872;BME280;72646;43.596;1.428;2023-09-12T11:30:11;99690.75;;;25.08;56.90
82872;BME280;72646;43.596;1.428;2023-09-12T11:32:37;99696.53;;;25.17;56.82
82872;BME280;72646;43.596;1.428;2023-09-12T11:35:07;99683.69;;;25.16;56.65
82872;BME280;72646;43.596;1.428;2023-09-12T11:37:33;99685.38;;;25.17;56.61
82872;BME280;72646;43.596;1.428;2023-09-12T11:40:00;99680.59;;;25.17;56.81
82872;BME280;72646;43.596;1.428;2023-09-12T11:42:26;99684.75;;;25.20;56.31
82872;BME280;72646;43.596;1.428;2023-09-12T11:44:52;99682.78;;;25.20;56.50
82872;BME280;72646;43.596;1.428;2023-09-12T11:47:18;99691.16;;;25.20;56.71
82872;BME280;72646;43.596;1.428;2023-09-12T11:49:43;99678.94;;;25.16;56.45
82872;BME280;72646;43.596;1.428;2023-09-12T11:52:10;99681.91;;;25.25;56.95
82872;BME280;72646;43.596;1.428;2023-09-12T11:54:38;99669.66;;;25.21;56.42
82872;BME280;72646;43.596;1.428;2023-09-12T11:58:01;99663.38;;;25.34;56.23
82872;BME280;72646;43.596;1.428;2023-09-12T12:00:28;99662.31;;;25.48;56.19
82872;BME280;72646;43.596;1.428;2023-09-12T12:02:54;99640.03;;;25.43;55.93
82872;BME280;72646;43.596;1.428;2023-09-12T12:05:20;99631.34;;;25.45;56.02
82872;BME280;72646;43.596;1.428;2023-09-12T12:07:47;99644.13;;;25.51;56.22
82872;BME280;72646;43.596;1.428;2023-09-12T12:10:14;99652.44;;;25.56;56.10
82872;BME280;72646;43.596;1.428;2023-09-12T12:12:39;99642.69;;;25.53;56.11
82872;BME280;72646;43.596;1.428;2023-09-12T12:15:09;99644.88;;;25.56;56.36
82872;BME280;72646;43.596;1.428;2023-09-12T12:17:41;99641.25;;;25.56;56.20
82872;BME280;72646;43.596;1.428;2023-09-12T12:20:09;99638.84;;;25.49;55.83
82872;BME280;72646;43.596;1.428;2023-09-12T12:22:37;99644.00;;;25.61;55.74
82872;BME280;72646;43.596;1.428;2023-09-12T12:25:07;99647.59;;;25.61;55.73
82872;BME280;72646;43.596;1.428;2023-09-12T12:27:41;99647.28;;;25.63;55.68
82872;BME280;72646;43.596;1.428;2023-09-12T12:30:10;99659.06;;;25.60;55.49
82872;BME280;72646;43.596;1.428;2023-09-12T12:32:46;99671.56;;;25.67;55.73
82872;BME280;72646;43.596;1.428;2023-09-12T12:35:20;99674.31;;;25.72;55.73
82872;BME280;72646;43.596;1.428;2023-09-12T12:37:54;99671.66;;;25.81;55.36
82872;BME280;72646;43.596;1.428;2023-09-12T12:40:30;99647.91;;;25.78;55.40
82872;BME280;72646;43.596;1.428;2023-09-12T12:43:03;99647.69;;;25.75;55.61
82872;BME280;72646;43.596;1.428;2023-09-12T12:45:28;99642.91;;;25.75;55.68
82872;BME280;72646;43.596;1.428;2023-09-12T12:47:58;99645.19;;;25.73;55.80
82872;BME280;72646;43.596;1.428;2023-09-12T12:50:25;99639.06;;;25.71;55.75
82872;BME280;72646;43.596;1.428;2023-09-12T12:52:50;99629.47;;;25.77;55.36
82872;BME280;72646;43.596;1.428;2023-09-12T12:55:16;99622.53;;;25.75;55.91
82872;BME280;72646;43.596;1.428;2023-09-12T12:57:43;99606.94;;;25.69;55.80
82872;BME280;72646;43.596;1.428;2023-09-12T13:00:13;99613.72;;;25.81;55.82
82872;BME280;72646;43.596;1.428;2023-09-12T13:02:40;99630.94;;;25.88;55.56
82872;BME280;72646;43.596;1.428;2023-09-12T13:05:20;99640.19;;;25.89;55.52
82872;BME280;72646;43.596;1.428;2023-09-12T13:07:46;99643.16;;;25.79;55.95
82872;BME280;72646;43.596;1.428;2023-09-12T13:10:14;99638.41;;;25.79;55.40
82872;BME280;72646;43.596;1.428;2023-09-12T13:12:40;99653.63;;;25.87;55.41
82872;BME280;72646;43.596;1.428;2023-09-12T13:15:06;99660.91;;;25.88;55.56
82872;BME280;72646;43.596;1.428;2023-09-12T13:17:32;99662.81;;;25.92;55.49
82872;BME280;72646;43.596;1.428;2023-09-12T13:19:57;99667.25;;;25.93;55.58
82872;BME280;72646;43.596;1.428;2023-09-12T13:22:23;99645.97;;;25.97;55.26
82872;BME280;72646;43.596;1.428;2023-09-12T13:24:52;99614.41;;;25.92;54.96